Time,TemperatureF,DewpointF,PressureIn,WindDirection,WindDirectionDegrees,WindSpeedMPH,WindSpeedGustMPH,Humidity,HourlyPrecipIn,Conditions,Clouds,dailyrainin,SoftwareType,DateUTC
2013-02-11 00:06:00,57.3,54.0,29.99,West,267,3.0,6.0,87,0.00,,,0.00,weatherlink.com 1.10,2013-02-11 06:06:00,
2013-02-11 00:21:00,57.2,52.0,30.00,SW,233,4.0,11.0,84,0.00,,,0.00,weatherlink.com 1.10,2013-02-11 06:21:00,
2013-02-11 00:36:00,56.7,51.0,30.01,SW,232,2.0,4.0,81,0.00,,,0.00,weatherlink.com 1.10,2013-02-11 06:36:00,
2013-02-11 00:51:00,56.4,50.0,30.01,SW,226,1.0,2.0,79,0.00,,,0.00,weatherlink.com 1.10,2013-02-11 06:51:00,
2013-02-11 01:06:00,55.9,49.0,30.02,SW,235,0.0,2.0,78,0.00,,,0.00,weatherlink.com 1.10,2013-02-11 07:06:00,
2013-02-11 01:21:00,55.4,46.0,30.02,WSW,243,1.0,2.0,72,0.00,,,0.00,weatherlink.com 1.10,2013-02-11 07:21:00,
2013-02-11 01:36:00,54.6,46.0,30.03,WSW,243,0.0,2.0,72,0.00,,,0.00,weatherlink.com 1.10,2013-02-11 07:36:00,
2013-02-11 01:51:00,53.7,44.0,30.03,West,266,1.0,1.0,71,0.00,,,0.00,weatherlink.com 1.10,2013-02-11 07:51:00,
2013-02-11 02:06:00,52.6,45.0,30.03,West,266,0.0,0.0,74,0.00,,,0.00,weatherlink.com 1.10,2013-02-11 08:06:00,
2013-02-11 02:21:00,50.4,44.0,30.03,West,266,0.0,0.0,79,0.00,,,0.00,weatherlink.com 1.10,2013-02-11 08:21:00,
2013-02-11 02:36:00,48.5,44.0,30.05,West,266,0.0,0.0,84,0.00,,,0.00,weatherlink.com 1.10,2013-02-11 08:36:00,
2013-02-11 02:51:00,47.3,43.0,30.05,West,266,0.0,1.0,86,0.00,,,0.00,weatherlink.com 1.10,2013-02-11 08:51:00,
2013-02-11 03:06:00,48.7,42.0,30.05,West,264,0.0,1.0,77,0.00,,,0.00,weatherlink.com 1.10,2013-02-11 09:06:00,
2013-02-11 03:21:00,50.3,40.0,30.05,WNW,296,4.0,5.0,67,0.00,,,0.00,weatherlink.com 1.10,2013-02-11 09:21:00,
2013-02-11 03:36:00,51.4,39.0,30.06,West,271,1.0,3.0,62,0.00,,,0.00,weatherlink.com 1.10,2013-02-11 09:36:00,
2013-02-11 03:51:00,51.8,37.0,30.07,NNW,330,1.0,6.0,58,0.00,,,0.00,weatherlink.com 1.10,2013-02-11 09:51:00,
2013-02-11 04:06:00,51.3,37.0,30.07,NNE,32,2.0,5.0,58,0.00,,,0.00,weatherlink.com 1.10,2013-02-11 10:06:00,
2013-02-11 04:21:00,50.5,36.0,30.07,NW,325,1.0,3.0,58,0.00,,,0.00,weatherlink.com 1.10,2013-02-11 10:21:00,
2013-02-11 04:37:00,50.2,35.0,30.07,North,6,1.0,4.0,57,0.00,,,0.00,weatherlink.com 1.10,2013-02-11 10:37:00,
2013-02-11 04:52:00,50.0,35.0,30.09,NW,326,1.0,7.0,56,0.00,,,0.00,weatherlink.com 1.10,2013-02-11 10:52:00,
2013-02-11 05:07:00,49.5,34.0,30.10,NW,322,2.0,7.0,55,0.00,,,0.00,weatherlink.com 1.10,2013-02-11 11:07:00,
2013-02-11 05:22:00,48.8,34.0,30.11,WNW,290,4.0,6.0,56,0.00,,,0.00,weatherlink.com 1.10,2013-02-11 11:22:00,
2013-02-11 05:37:00,48.3,33.0,30.13,NNW,344,1.0,5.0,57,0.00,,,0.00,weatherlink.com 1.10,2013-02-11 11:37:00,
2013-02-11 05:52:00,47.6,32.0,30.12,NNW,335,1.0,4.0,56,0.00,,,0.00,weatherlink.com 1.10,2013-02-11 11:52:00,
2013-02-11 06:07:00,47.2,32.0,30.13,NNW,328,1.0,3.0,56,0.00,,,0.00,weatherlink.com 1.10,2013-02-11 12:07:00,
2013-02-11 06:22:00,46.9,30.0,30.13,WNW,302,2.0,6.0,53,0.00,,,0.00,weatherlink.com 1.10,2013-02-11 12:22:00,
2013-02-11 06:37:00,46.6,30.0,30.14,North,349,2.0,6.0,53,0.00,,,0.00,weatherlink.com 1.10,2013-02-11 12:37:00,
2013-02-11 06:52:00,46.1,31.0,30.14,WNW,301,1.0,3.0,55,0.00,,,0.00,weatherlink.com 1.10,2013-02-11 12:52:00,
2013-02-11 07:07:00,45.7,31.0,30.14,NE,50,0.0,2.0,57,0.00,,,0.00,weatherlink.com 1.10,2013-02-11 13:07:00,
2013-02-11 07:22:00,45.4,31.0,30.15,WNW,301,0.0,1.0,58,0.00,,,0.00,weatherlink.com 1.10,2013-02-11 13:22:00,
2013-02-11 07:37:00,45.4,31.0,30.16,NNW,328,1.0,1.0,58,0.00,,,0.00,weatherlink.com 1.10,2013-02-11 13:37:00,
2013-02-11 07:52:00,45.6,31.0,30.17,NW,311,2.0,2.0,58,0.00,,,0.00,weatherlink.com 1.10,2013-02-11 13:52:00,
2013-02-11 08:07:00,45.7,32.0,30.19,NW,311,0.0,0.0,59,0.00,,,0.00,weatherlink.com 1.10,2013-02-11 14:07:00,
2013-02-11 08:22:00,45.9,32.0,30.19,WNW,285,1.0,1.0,59,0.00,,,0.00,weatherlink.com 1.10,2013-02-11 14:22:00,
2013-02-11 08:37:00,45.9,32.0,30.19,WNW,300,0.0,1.0,59,0.00,,,0.00,weatherlink.com 1.10,2013-02-11 14:37:00,
2013-02-11 08:52:00,46.1,32.0,30.20,WNW,298,0.0,1.0,59,0.00,,,0.00,weatherlink.com 1.10,2013-02-11 14:52:00,
2013-02-11 09:07:00,46.4,32.0,30.19,NW,306,0.0,0.0,58,0.00,,,0.00,weatherlink.com 1.10,2013-02-11 15:07:00,
2013-02-11 09:22:00,46.6,32.0,30.19,NW,318,0.0,2.0,58,0.00,,,0.00,weatherlink.com 1.10,2013-02-11 15:22:00,
2013-02-11 09:37:00,47.0,32.0,30.21,North,353,0.0,1.0,57,0.00,,,0.00,weatherlink.com 1.10,2013-02-11 15:37:00,
2013-02-11 09:52:00,47.4,33.0,30.22,NNE,13,0.0,1.0,57,0.00,,,0.00,weatherlink.com 1.10,2013-02-11 15:52:00,
2013-02-11 10:07:00,47.7,32.0,30.22,WNW,284,0.0,1.0,56,0.00,,,0.00,weatherlink.com 1.10,2013-02-11 16:07:00,
2013-02-11 10:22:00,48.0,32.0,30.23,NNE,13,0.0,1.0,54,0.00,,,0.00,weatherlink.com 1.10,2013-02-11 16:22:00,
2013-02-11 10:37:00,48.6,31.0,30.24,NW,310,0.0,2.0,52,0.00,,,0.00,weatherlink.com 1.10,2013-02-11 16:37:00,
2013-02-11 10:52:00,49.2,31.0,30.20,NE,49,0.0,2.0,50,0.00,,,0.00,weatherlink.com 1.10,2013-02-11 16:52:00,
2013-02-11 11:07:00,50.5,32.0,30.21,North,358,0.0,4.0,50,0.00,,,0.00,weatherlink.com 1.10,2013-02-11 17:07:00,
2013-02-11 11:22:00,50.5,30.0,30.22,NNE,30,1.0,4.0,46,0.00,,,0.00,weatherlink.com 1.10,2013-02-11 17:22:00,
2013-02-11 11:37:00,50.5,30.0,30.23,NNW,335,1.0,2.0,46,0.00,,,0.00,weatherlink.com 1.10,2013-02-11 17:37:00,
2013-02-11 11:52:00,50.8,31.0,30.22,NNW,328,0.0,2.0,46,0.00,,,0.00,weatherlink.com 1.10,2013-02-11 17:52:00,
2013-02-11 12:07:00,51.8,31.0,30.22,ENE,72,2.0,3.0,46,0.00,,,0.00,weatherlink.com 1.10,2013-02-11 18:07:00,
2013-02-11 12:22:00,52.2,31.0,30.21,WSW,238,2.0,4.0,45,0.00,,,0.00,weatherlink.com 1.10,2013-02-11 18:22:00,
2013-02-11 12:37:00,52.7,30.0,30.20,South,170,1.0,4.0,42,0.00,,,0.00,weatherlink.com 1.10,2013-02-11 18:37:00,
2013-02-11 12:52:00,53.7,31.0,30.19,SW,232,1.0,4.0,42,0.00,,,0.00,weatherlink.com 1.10,2013-02-11 18:52:00,
2013-02-11 13:07:00,55.0,33.0,30.18,NE,51,1.0,3.0,43,0.00,,,0.00,weatherlink.com 1.10,2013-02-11 19:07:00,
2013-02-11 13:22:00,55.1,32.0,30.18,ENE,65,2.0,3.0,41,0.00,,,0.00,weatherlink.com 1.10,2013-02-11 19:22:00,
2013-02-11 13:37:00,56.3,31.0,30.18,SSE,166,0.0,3.0,38,0.00,,,0.00,weatherlink.com 1.10,2013-02-11 19:37:00,
2013-02-11 13:52:00,57.1,31.0,30.17,WSW,240,1.0,3.0,38,0.00,,,0.00,weatherlink.com 1.10,2013-02-11 19:52:00,
2013-02-11 14:23:00,57.5,30.0,30.16,ENE,58,0.0,2.0,35,0.00,,,0.00,weatherlink.com 1.10,2013-02-11 20:23:00,
2013-02-11 14:38:00,58.1,30.0,30.15,ENE,78,0.0,4.0,34,0.00,,,0.00,weatherlink.com 1.10,2013-02-11 20:38:00,
2013-02-11 14:53:00,58.0,30.0,30.16,ENE,73,0.0,2.0,35,0.00,,,0.00,weatherlink.com 1.10,2013-02-11 20:53:00,
2013-02-11 15:08:00,58.6,31.0,30.15,SSW,212,1.0,2.0,35,0.00,,,0.00,weatherlink.com 1.10,2013-02-11 21:08:00,
2013-02-11 15:23:00,59.3,29.0,30.15,SW,219,0.0,1.0,32,0.00,,,0.00,weatherlink.com 1.10,2013-02-11 21:23:00,
2013-02-11 15:38:00,60.2,31.0,30.14,SE,126,0.0,2.0,33,0.00,,,0.00,weatherlink.com 1.10,2013-02-11 21:38:00,
2013-02-11 15:53:00,59.5,30.0,30.14,NW,313,1.0,2.0,33,0.00,,,0.00,weatherlink.com 1.10,2013-02-11 21:53:00,
2013-02-11 16:07:00,58.8,29.0,30.14,WNW,288,0.0,2.0,32,0.00,,,0.00,weatherlink.com 1.10,2013-02-11 22:07:00,
2013-02-11 16:23:00,58.4,28.0,30.14,NNE,22,0.0,1.0,32,0.00,,,0.00,weatherlink.com 1.10,2013-02-11 22:23:00,
2013-02-11 16:39:00,57.8,29.0,30.14,NE,37,0.0,0.0,34,0.00,,,0.00,weatherlink.com 1.10,2013-02-11 22:39:00,
2013-02-11 16:53:00,56.6,30.0,30.14,NNW,333,0.0,1.0,36,0.00,,,0.00,weatherlink.com 1.10,2013-02-11 22:53:00,
2013-02-11 17:08:00,55.7,29.0,30.13,NW,323,0.0,1.0,36,0.00,,,0.00,weatherlink.com 1.10,2013-02-11 23:08:00,
2013-02-11 17:23:00,55.1,28.0,30.13,West,277,0.0,3.0,36,0.00,,,0.00,weatherlink.com 1.10,2013-02-11 23:23:00,
2013-02-11 17:38:00,53.9,29.0,30.14,West,277,0.0,0.0,39,0.00,,,0.00,weatherlink.com 1.10,2013-02-11 23:38:00,
2013-02-11 17:53:00,52.5,30.0,30.13,West,276,0.0,1.0,42,0.00,,,0.00,weatherlink.com 1.10,2013-02-11 23:53:00,
2013-02-11 18:08:00,51.4,31.0,30.14,West,277,0.0,1.0,46,0.00,,,0.00,weatherlink.com 1.10,2013-02-12 00:08:00,
2013-02-11 18:23:00,51.0,32.0,30.16,West,276,1.0,2.0,48,0.00,,,0.00,weatherlink.com 1.10,2013-02-12 00:23:00,
2013-02-11 18:38:00,51.0,32.0,30.16,West,281,0.0,1.0,49,0.00,,,0.00,weatherlink.com 1.10,2013-02-12 00:38:00,
2013-02-11 18:53:00,50.9,34.0,30.13,NW,305,0.0,1.0,52,0.00,,,0.00,weatherlink.com 1.10,2013-02-12 00:53:00,
2013-02-11 19:08:00,50.7,34.0,30.15,North,5,0.0,1.0,53,0.00,,,0.00,weatherlink.com 1.10,2013-02-12 01:08:00,
2013-02-11 19:23:00,50.6,34.0,30.18,NW,311,0.0,1.0,53,0.00,,,0.00,weatherlink.com 1.10,2013-02-12 01:23:00,
2013-02-11 19:38:00,50.4,34.0,30.18,NW,310,0.0,0.0,54,0.00,,,0.00,weatherlink.com 1.10,2013-02-12 01:38:00,
2013-02-11 19:53:00,50.0,35.0,30.17,NW,311,0.0,0.0,56,0.00,,,0.00,weatherlink.com 1.10,2013-02-12 01:53:00,
2013-02-11 20:08:00,49.5,35.0,30.17,NW,311,0.0,0.0,58,0.00,,,0.00,weatherlink.com 1.10,2013-02-12 02:08:00,
2013-02-11 20:23:00,48.7,34.0,30.18,NW,310,0.0,0.0,58,0.00,,,0.00,weatherlink.com 1.10,2013-02-12 02:23:00,
2013-02-11 20:38:00,48.5,36.0,30.20,NW,310,0.0,0.0,62,0.00,,,0.00,weatherlink.com 1.10,2013-02-12 02:38:00,
2013-02-11 20:53:00,48.4,35.0,30.19,NW,311,0.0,0.0,61,0.00,,,0.00,weatherlink.com 1.10,2013-02-12 02:53:00,
2013-02-11 21:08:00,48.3,36.0,30.18,NW,311,0.0,0.0,63,0.00,,,0.00,weatherlink.com 1.10,2013-02-12 03:08:00,
2013-02-11 21:23:00,48.4,37.0,30.16,NW,311,0.0,0.0,64,0.00,,,0.00,weatherlink.com 1.10,2013-02-12 03:23:00,
2013-02-11 21:38:00,48.5,36.0,30.16,NE,37,0.0,1.0,63,0.00,,,0.00,weatherlink.com 1.10,2013-02-12 03:38:00,
2013-02-11 21:53:00,48.3,36.0,30.17,NNE,27,0.0,1.0,62,0.00,,,0.00,weatherlink.com 1.10,2013-02-12 03:53:00,
2013-02-11 22:08:00,48.3,36.0,30.17,NNE,31,0.0,0.0,63,0.00,,,0.00,weatherlink.com 1.10,2013-02-12 04:08:00,
2013-02-11 22:23:00,47.9,36.0,30.18,NNE,32,0.0,0.0,63,0.00,,,0.00,weatherlink.com 1.10,2013-02-12 04:23:00,
2013-02-11 22:38:00,47.5,37.0,30.18,NNE,32,0.0,0.0,66,0.00,,,0.00,weatherlink.com 1.10,2013-02-12 04:38:00,
2013-02-11 22:53:00,47.4,37.0,30.19,NNE,32,0.0,1.0,67,0.00,,,0.00,weatherlink.com 1.10,2013-02-12 04:53:00,
2013-02-11 23:08:00,47.6,37.0,30.18,NNE,32,0.0,1.0,68,0.00,,,0.00,weatherlink.com 1.10,2013-02-12 05:08:00,
2013-02-11 23:23:00,47.3,37.0,30.18,NNE,31,0.0,0.0,67,0.00,,,0.00,weatherlink.com 1.10,2013-02-12 05:23:00,
2013-02-11 23:38:00,47.1,37.0,30.19,NNE,32,0.0,0.0,69,0.00,,,0.00,weatherlink.com 1.10,2013-02-12 05:38:00,
2013-02-11 23:53:00,47.0,38.0,30.18,NNE,31,0.0,0.0,70,0.00,,,0.00,weatherlink.com 1.10,2013-02-12 05:53:00,